Time;durP1;ratioP1;P1;durP2;ratioP2;P2;SDS_P1;SDS_P2;PMS_P1;PMS_P2;Temp;Humidity;BMP_temperature;BMP_pressure;BME280_temperature;BME280_humidity;BME280_pressure;Samples;Min_cycle;Max_cycle;Signal;HPM_P1;HPM_P2
2023/09/06 00:00:43;;;;;;;;;;;;;;;18.07;100.00;101974.06;5011071;28;19925;-81
2023/09/06 00:03:29;;;;;;;;;;;;;;;18.04;100.00;101972.38;5030857;28;19924;-82
2023/09/06 00:06:14;;;;;;;;;;;;;;;18.01;100.00;101973.44;5062822;28;20026;-82
2023/09/06 00:09:00;;;;;;;;;;;;;;;17.98;100.00;101967.38;5061916;28;20138;-82
2023/09/06 00:11:49;;;;;;;;;;;;;;;17.96;100.00;101974.63;5062279;28;20028;-82
2023/09/06 00:14:36;;;;;;;;;;;;;;;17.92;100.00;101965.91;5062564;28;19932;-83
2023/09/06 00:17:22;;;;;;;;;;;;;;;17.90;100.00;101967.81;5048917;28;20070;-83
2023/09/06 00:20:21;;;;;;;;;;;;;;;17.88;100.00;101967.06;5058734;28;20015;-82
2023/09/06 00:23:12;;;;;;;;;;;;;;;17.84;100.00;101954.78;5062169;28;19924;-82
2023/09/06 00:25:58;;;;;;;;;;;;;;;17.82;100.00;101957.56;5061917;28;19920;-82
2023/09/06 00:28:45;;;;;;;;;;;;;;;17.81;100.00;101955.00;5062638;28;19935;-82
2023/09/06 00:31:31;;;;;;;;;;;;;;;17.78;100.00;101956.88;5063355;28;19928;-83
2023/09/06 00:34:17;;;;;;;;;;;;;;;17.72;100.00;101959.94;5032537;28;20345;-82
2023/09/06 00:37:03;;;;;;;;;;;;;;;17.70;100.00;101964.50;5062120;28;20371;-82
2023/09/06 00:39:48;;;;;;;;;;;;;;;17.70;100.00;101964.50;5050383;28;20080;-82
2023/09/06 00:42:37;;;;;;;;;;;;;;;17.71;100.00;101965.38;5061863;28;19935;-81
2023/09/06 00:45:26;;;;;;;;;;;;;;;17.71;100.00;101965.38;5062522;28;20399;-82
2023/09/06 00:48:12;;;;;;;;;;;;;;;17.70;100.00;101969.84;5061865;28;19969;-81
2023/09/06 00:50:57;;;;;;;;;;;;;;;17.71;100.00;101970.72;5066419;28;20459;-81
2023/09/06 00:53:43;;;;;;;;;;;;;;;17.68;100.00;101969.09;5053198;28;19989;-82
2023/09/06 00:56:29;;;;;;;;;;;;;;;17.67;100.00;101970.03;5054743;28;19932;-82
2023/09/06 00:59:15;;;;;;;;;;;;;;;17.65;100.00;101979.97;5060931;28;19965;-81
2023/09/06 01:02:00;;;;;;;;;;;;;;;17.62;100.00;101970.31;5056332;28;19931;-82
2023/09/06 01:04:46;;;;;;;;;;;;;;;17.58;100.00;101973.22;5061244;28;19932;-82
2023/09/06 01:07:34;;;;;;;;;;;;;;;17.53;100.00;101978.84;5061969;28;19951;-82
2023/09/06 01:10:20;;;;;;;;;;;;;;;17.47;100.00;101974.72;5048408;28;19924;-82
2023/09/06 01:13:06;;;;;;;;;;;;;;;17.45;100.00;101973.09;5046739;28;20041;-82
2023/09/06 01:15:51;;;;;;;;;;;;;;;17.40;100.00;101970.69;5060909;28;19924;-82
2023/09/06 01:18:37;;;;;;;;;;;;;;;17.36;100.00;101970.00;5048500;28;19951;-83
2023/09/06 01:21:24;;;;;;;;;;;;;;;17.34;100.00;101974.53;5064813;28;19938;-82
2023/09/06 01:24:10;;;;;;;;;;;;;;;17.33;100.00;101966.63;5065199;28;20015;-82
2023/09/06 01:26:57;;;;;;;;;;;;;;;17.32;100.00;101975.59;5062339;28;20582;-82
2023/09/06 01:29:42;;;;;;;;;;;;;;;17.29;100.00;101965.94;5048527;28;20040;-82
2023/09/06 01:32:28;;;;;;;;;;;;;;;17.28;100.00;101974.91;5064042;28;19924;-83
2023/09/06 01:35:15;;;;;;;;;;;;;;;17.28;100.00;101976.72;5047721;28;19932;-82
2023/09/06 01:38:00;;;;;;;;;;;;;;;17.24;100.00;101979.56;5047212;28;19935;-82
2023/09/06 01:40:46;;;;;;;;;;;;;;;17.24;100.00;101984.06;5048421;28;19935;-82
2023/09/06 01:43:32;;;;;;;;;;;;;;;17.22;100.00;101980.59;5049603;28;19931;-82
2023/09/06 01:46:19;;;;;;;;;;;;;;;17.22;100.00;101985.97;5060776;28;19931;-82
2023/09/06 01:49:05;;;;;;;;;;;;;;;17.20;100.00;101975.34;5061305;28;19932;-83
2023/09/06 01:51:51;;;;;;;;;;;;;;;17.19;100.00;101984.31;5064469;28;19929;-83
2023/09/06 01:54:36;;;;;;;;;;;;;;;17.15;100.00;101988.09;5064812;28;21974;-83
2023/09/06 01:57:22;;;;;;;;;;;;;;;17.12;100.00;101980.25;5063689;28;19928;-82
2023/09/06 02:03:10;;;;;;;;;;;;;;;17.10;100.00;101977.66;5061771;28;19939;-83
2023/09/06 02:05:55;;;;;;;;;;;;;;;17.11;100.00;101983.88;5066364;28;20011;-82
2023/09/06 02:08:41;;;;;;;;;;;;;;;17.09;100.00;101989.31;5061173;28;19928;-82
2023/09/06 02:11:27;;;;;;;;;;;;;;;17.07;100.00;101980.50;5060534;28;19924;-83
2023/09/06 02:14:15;;;;;;;;;;;;;;;17.07;100.00;101987.66;5061462;28;19928;-83
2023/09/06 02:17:03;;;;;;;;;;;;;;;17.09;100.00;101985.75;5043999;28;19928;-84
2023/09/06 02:19:49;;;;;;;;;;;;;;;17.07;100.00;101976.97;5060348;28;20017;-83
2023/09/06 02:22:36;;;;;;;;;;;;;;;17.06;100.00;101980.59;5035192;28;20337;-84
2023/09/06 02:25:26;;;;;;;;;;;;;;;17.04;100.00;101971.75;5061305;28;21958;-83
2023/09/06 02:28:12;;;;;;;;;;;;;;;17.01;100.00;101971.91;5043577;28;20054;-83
2023/09/06 02:30:57;;;;;;;;;;;;;;;16.97;100.00;101971.22;5060531;28;19924;-83
2023/09/06 02:33:44;;;;;;;;;;;;;;;16.93;100.00;101981.22;5058862;28;19935;-81
2023/09/06 02:36:29;;;;;;;;;;;;;;;16.88;100.00;101977.09;5058327;28;20321;-84
2023/09/06 02:39:15;;;;;;;;;;;;;;;16.86;100.00;101974.47;5060350;28;19933;-83
2023/09/06 02:42:00;;;;;;;;;;;;;;;16.86;100.00;101973.59;5059988;28;19967;-83
2023/09/06 02:44:46;;;;;;;;;;;;;;;16.86;100.00;101971.81;5045525;28;19939;-83
2023/09/06 02:47:34;;;;;;;;;;;;;;;16.88;100.00;101977.94;5029223;28;19929;-83
2023/09/06 02:50:23;;;;;;;;;;;;;;;16.87;100.00;101976.22;5060343;28;20377;-84
2023/09/06 02:53:19;;;;;;;;;;;;;;;16.91;100.00;101974.22;5049498;28;20019;-83
2023/09/06 02:56:05;;;;;;;;;;;;;;;16.89;100.00;101973.47;5048819;28;20020;-83
2023/09/06 02:58:50;;;;;;;;;;;;;;;16.89;100.00;101981.47;5059121;28;21143;-83
2023/09/06 03:01:38;;;;;;;;;;;;;;;16.88;100.00;101977.94;5056935;28;19943;-83
2023/09/06 03:04:23;;;;;;;;;;;;;;;16.86;100.00;101974.47;5060584;28;19936;-83
2023/09/06 03:07:09;;;;;;;;;;;;;;;16.84;100.00;101977.22;5058653;28;19928;-83
2023/09/06 03:09:56;;;;;;;;;;;;;;;16.84;100.00;101979.91;5060908;28;19932;-83
2023/09/06 03:12:43;;;;;;;;;;;;;;;16.86;100.00;101978.94;5056318;28;19936;-84
2023/09/06 03:15:29;;;;;;;;;;;;;;;16.83;100.00;101980.84;5056949;28;19920;-84
2023/09/06 03:18:15;;;;;;;;;;;;;;;16.81;100.00;101982.75;5057768;28;19935;-83
2023/09/06 03:21:04;;;;;;;;;;;;;;;16.80;100.00;101986.38;5045632;28;19928;-84
2023/09/06 03:23:51;;;;;;;;;;;;;;;16.79;100.00;101986.47;5063104;28;19972;-84
2023/09/06 03:26:39;;;;;;;;;;;;;;;16.77;100.00;101986.53;5064935;28;19932;-83
2023/09/06 03:29:27;;;;;;;;;;;;;;;16.75;100.00;101982.22;5065170;28;19963;-83
2023/09/06 03:32:13;;;;;;;;;;;;;;;16.72;100.00;101982.38;5065354;28;20845;-84
2023/09/06 03:34:58;;;;;;;;;;;;;;;16.69;100.00;101978.91;5064041;28;20852;-83
2023/09/06 03:37:44;;;;;;;;;;;;;;;16.67;100.00;101986.16;5063461;28;19978;-83
2023/09/06 03:40:42;;;;;;;;;;;;;;;16.65;100.00;101992.53;5064762;28;19928;-83
2023/09/06 03:43:32;;;;;;;;;;;;;;;16.62;100.00;101998.91;5060026;28;19935;-83
2023/09/06 03:46:20;;;;;;;;;;;;;;;16.60;100.00;101992.78;5063145;28;20436;-82
2023/09/06 03:49:10;;;;;;;;;;;;;;;16.56;100.00;101988.53;5063592;28;20057;-83
2023/09/06 03:51:56;;;;;;;;;;;;;;;16.54;100.00;101987.75;5067180;28;19932;-83
2023/09/06 03:54:41;;;;;;;;;;;;;;;16.51;100.00;101990.59;5052544;28;20464;-83
2023/09/06 03:57:27;;;;;;;;;;;;;;;16.47;100.00;101994.38;5052105;28;19932;-84
2023/09/06 04:00:24;;;;;;;;;;;;;;;16.42;100.00;101992.81;5049139;28;19943;-84
2023/09/06 04:03:10;;;;;;;;;;;;;;;16.38;100.00;101995.72;5047869;28;19944;-83
2023/09/06 04:05:57;;;;;;;;;;;;;;;16.37;100.00;101992.19;5065497;28;19932;-82
2023/09/06 04:08:43;;;;;;;;;;;;;;;16.36;100.00;101989.59;5048787;28;20019;-84
2023/09/06 04:11:32;;;;;;;;;;;;;;;16.35;100.00;101983.38;5052378;28;19964;-84
2023/09/06 04:14:17;;;;;;;;;;;;;;;16.36;100.00;101992.25;5063867;28;19928;-84
2023/09/06 04:17:07;;;;;;;;;;;;;;;16.33;100.00;101993.28;5048036;28;20379;-82
2023/09/06 04:19:55;;;;;;;;;;;;;;;16.31;100.00;101984.50;5062675;28;20489;-83
2023/09/06 04:22:41;;;;;;;;;;;;;;;16.28;100.00;101989.97;5049506;28;20157;-83
2023/09/06 04:25:27;;;;;;;;;;;;;;;16.25;100.00;101979.47;5066339;28;19924;-83
2023/09/06 04:28:13;;;;;;;;;;;;;;;16.21;100.00;101980.53;5065217;28;19925;-83
2023/09/06 04:31:00;;;;;;;;;;;;;;;16.18;100.00;101983.38;5062336;28;20272;-83
2023/09/06 04:33:46;;;;;;;;;;;;;;;16.15;100.00;101979.06;5048739;28;19924;-82
2023/09/06 04:36:32;;;;;;;;;;;;;;;16.13;100.00;101970.28;5064239;28;20676;-82
2023/09/06 04:39:17;;;;;;;;;;;;;;;16.10;100.00;101976.63;5049317;28;19986;-83
2023/09/06 04:42:03;;;;;;;;;;;;;;;16.09;100.00;101979.38;5051829;28;19928;-84
2023/09/06 04:44:49;;;;;;;;;;;;;;;16.07;100.00;101973.25;5062058;28;20019;-84
2023/09/06 04:47:35;;;;;;;;;;;;;;;16.05;100.00;101973.31;5066147;28;19940;-83
2023/09/06 04:50:21;;;;;;;;;;;;;;;16.04;100.00;101976.06;5065650;28;19933;-84
2023/09/06 04:53:11;;;;;;;;;;;;;;;16.02;100.00;101979.69;5067789;28;19979;-83
2023/09/06 04:56:02;;;;;;;;;;;;;;;15.98;100.00;101975.47;5067507;28;19929;-82
2023/09/06 04:58:49;;;;;;;;;;;;;;;15.95;100.00;101978.25;5046293;28;19932;-82
2023/09/06 05:01:34;;;;;;;;;;;;;;;15.94;100.00;101973.88;5047508;28;20547;-83
2023/09/06 05:04:20;;;;;;;;;;;;;;;15.93;100.00;101976.59;5062987;28;19944;-82
2023/09/06 05:07:08;;;;;;;;;;;;;;;15.89;100.00;101979.41;5063268;28;19928;-82
2023/09/06 05:09:57;;;;;;;;;;;;;;;15.88;100.00;101982.16;5062098;28;19936;-83
2023/09/06 05:12:42;;;;;;;;;;;;;;;15.85;100.00;101988.50;5061929;28;19933;-82
2023/09/06 05:15:28;;;;;;;;;;;;;;;15.85;100.00;101988.50;5046900;28;19926;-83
2023/09/06 05:18:17;;;;;;;;;;;;;;;15.83;100.00;101985.06;5063350;28;20453;-82
2023/09/06 05:21:05;;;;;;;;;;;;;;;15.83;100.00;101992.19;5049799;28;19931;-82
2023/09/06 05:23:51;;;;;;;;;;;;;;;15.83;100.00;102001.09;5050101;28;19999;-83
2023/09/06 05:26:36;;;;;;;;;;;;;;;15.87;100.00;101997.31;5065648;28;19939;-82
2023/09/06 05:29:22;;;;;;;;;;;;;;;15.88;100.00;101993.72;5066266;28;19974;-81
2023/09/06 05:32:11;;;;;;;;;;;;;;;15.91;100.00;102000.69;5067640;28;19932;-82
2023/09/06 05:34:56;;;;;;;;;;;;;;;15.94;100.00;102011.25;5062666;28;19935;-82
2023/09/06 05:37:42;;;;;;;;;;;;;;;15.96;100.00;102011.19;5050759;28;19931;-80
2023/09/06 05:40:30;;;;;;;;;;;;;;;15.98;100.00;102007.50;5048094;28;19936;-80
2023/09/06 05:43:15;;;;;;;;;;;;;;;16.02;100.00;102011.72;5062747;28;20303;-80
2023/09/06 05:46:01;;;;;;;;;;;;;;;16.08;100.00;102005.22;5061485;28;19929;-81
2023/09/06 05:48:47;;;;;;;;;;;;;;;16.11;100.00;102017.53;5063387;28;19928;-81
2023/09/06 05:51:33;;;;;;;;;;;;;;;16.15;100.00;102021.81;5065413;28;20346;-81
2023/09/06 05:54:19;;;;;;;;;;;;;;;16.20;100.00;102021.56;5067738;28;20438;-82
2023/09/06 05:57:05;;;;;;;;;;;;;;;16.24;100.00;102018.66;5065865;28;21133;-80
2023/09/06 05:59:51;;;;;;;;;;;;;;;16.29;100.00;102013.09;5061964;28;19932;-80
2023/09/06 06:02:37;;;;;;;;;;;;;;;16.34;100.00;102021.72;5046425;28;19939;-81
2023/09/06 06:05:24;;;;;;;;;;;;;;;16.38;100.00;102017.97;5059870;28;20378;-80
2023/09/06 06:08:09;;;;;;;;;;;;;;;16.46;100.00;102022.03;5047913;28;20006;-80
2023/09/06 06:10:56;;;;;;;;;;;;;;;16.49;100.00;102029.88;5061684;28;20010;-81
2023/09/06 06:13:41;;;;;;;;;;;;;;;16.54;100.00;102023.38;5062322;28;19932;-80
2023/09/06 06:16:27;;;;;;;;;;;;;;;16.60;100.00;102021.34;5062879;28;19932;-80
2023/09/06 06:19:13;;;;;;;;;;;;;;;16.65;100.00;102033.50;5046791;28;19924;-82
2023/09/06 06:22:02;;;;;;;;;;;;;;;16.71;100.00;102032.31;5062401;28;19936;-81
2023/09/06 06:24:51;;;;;;;;;;;;;;;16.77;100.00;102029.31;5034101;28;20391;-81
2023/09/06 06:27:36;;;;;;;;;;;;;;;16.82;100.00;102037.97;5050254;28;19924;-81
2023/09/06 06:30:22;;;;;;;;;;;;;;;16.89;100.00;102037.66;5064689;28;19928;-81
2023/09/06 06:33:09;;;;;;;;;;;;;;;16.95;100.00;102040.84;5061083;28;19928;-82
2023/09/06 06:35:54;;;;;;;;;;;;;;;17.02;100.00;102044.09;5064573;28;19928;-82
2023/09/06 06:38:40;;;;;;;;;;;;;;;17.10;100.00;102046.34;5037060;28;19924;-82
2023/09/06 06:41:26;;;;;;;;;;;;;;;17.16;100.00;102040.66;5062002;28;19929;-81
2023/09/06 06:44:11;;;;;;;;;;;;;;;17.30;100.00;102044.38;5065110;28;19971;-84
2023/09/06 06:46:57;;;;;;;;;;;;;;;17.50;100.00;102044.13;5065241;28;21631;-88
2023/09/06 06:49:43;;;;;;;;;;;;;;;17.65;100.00;102044.22;5062690;28;20307;-84
2023/09/06 06:52:30;;;;;;;;;;;;;;;17.78;100.00;102044.41;5062140;28;19932;-86
2023/09/06 06:55:16;;;;;;;;;;;;;;;17.87;100.00;102051.06;5062423;28;19928;-82
2023/09/06 06:58:03;;;;;;;;;;;;;;;17.94;100.00;102055.09;5062398;28;19928;-81
2023/09/06 07:00:48;;;;;;;;;;;;;;;18.03;100.00;102049.22;5061511;28;20409;-83
2023/09/06 07:03:34;;;;;;;;;;;;;;;18.12;100.00;102055.00;5048493;28;19928;-82
2023/09/06 07:06:21;;;;;;;;;;;;;;;18.19;100.00;102048.34;5067003;28;19928;-83
2023/09/06 07:09:07;;;;;;;;;;;;;;;18.29;100.00;102052.22;5064619;28;19964;-82
2023/09/06 07:11:53;;;;;;;;;;;;;;;18.42;100.00;102054.16;5063892;28;19929;-81
2023/09/06 07:14:39;;;;;;;;;;;;;;;18.50;100.00;102053.69;5049593;28;19939;-81
2023/09/06 07:17:25;;;;;;;;;;;;;;;18.63;100.00;102054.66;5048625;28;19936;-81
2023/09/06 07:20:12;;;;;;;;;;;;;;;18.73;100.00;102060.34;5064316;28;19936;-81
2023/09/06 07:22:58;;;;;;;;;;;;;;;18.82;100.00;102059.78;5064135;28;20489;-80
2023/09/06 07:25:44;;;;;;;;;;;;;;;18.89;100.00;102065.63;5066055;28;20050;-82
2023/09/06 07:28:40;;;;;;;;;;;;;;;18.96;100.00;102058.06;5066391;28;20039;-81
2023/09/06 07:31:25;;;;;;;;;;;;;;;19.03;100.00;102064.81;5052560;28;19932;-81
2023/09/06 07:34:11;;;;;;;;;;;;;;;19.10;100.00;102063.47;5047764;28;19977;-79
2023/09/06 07:36:56;;;;;;;;;;;;;;;19.22;100.00;102071.69;5049012;28;19921;-80
2023/09/06 07:39:42;;;;;;;;;;;;;;;19.29;100.00;102073.06;5063197;28;19972;-80
2023/09/06 07:42:29;;;;;;;;;;;;;;;19.38;100.00;102077.84;5045258;28;20759;-84
2023/09/06 07:45:14;;;;;;;;;;;;;;;19.47;100.00;102064.78;5062958;28;20015;-82
2023/09/06 07:48:01;;;;;;;;;;;;;;;19.56;100.00;102069.56;5064221;28;19924;-82
2023/09/06 07:50:47;;;;;;;;;;;;;;;19.64;100.00;102075.31;5066931;28;19932;-81
2023/09/06 07:53:32;;;;;;;;;;;;;;;19.70;100.00;102079.41;5050875;28;19928;-82
2023/09/06 07:56:18;;;;;;;;;;;;;;;19.78;100.00;102084.28;5049991;28;19943;-80
2023/09/06 07:59:04;;;;;;;;;;;;;;;19.85;100.00;102080.25;5062663;28;19978;-83
2023/09/06 08:01:50;;;;;;;;;;;;;;;19.97;100.00;102083.09;5063484;28;19932;-86
2023/09/06 08:04:35;;;;;;;;;;;;;;;20.06;100.00;102082.50;5051077;28;19928;-84
2023/09/06 08:07:22;;;;;;;;;;;;;;;20.19;100.00;102082.53;5064741;28;19928;-85
2023/09/06 08:10:09;;;;;;;;;;;;;;;20.29;100.00;102088.16;5065966;28;19935;-86
2023/09/06 08:12:55;;;;;;;;;;;;;;;20.44;100.00;102089.78;5069784;28;20564;-84
2023/09/06 08:15:41;;;;;;;;;;;;;;;20.57;100.00;102091.66;5067845;28;19924;-87
2023/09/06 08:18:28;;;;;;;;;;;;;;;20.66;100.00;102087.47;5041913;28;19946;-85
2023/09/06 08:21:15;;;;;;;;;;;;;;;20.81;100.00;102093.63;5068914;28;19951;-86
2023/09/06 08:24:04;;;;;;;;;;;;;;;20.98;100.00;102089.78;5052599;28;19932;-80
2023/09/06 08:26:49;;;;;;;;;;;;;;;21.18;100.00;102096.44;5051553;28;19928;-84
2023/09/06 08:29:35;;;;;;;;;;;;;;;21.32;100.00;102098.16;5053479;28;20101;-82
2023/09/06 08:32:21;;;;;;;;;;;;;;;21.42;100.00;102095.66;5068475;28;19924;-82
2023/09/06 08:35:07;;;;;;;;;;;;;;;21.54;100.00;102093.91;5068063;28;20371;-83
2023/09/06 08:37:53;;;;;;;;;;;;;;;21.66;100.00;102101.09;5068081;28;19936;-83
2023/09/06 08:40:38;;;;;;;;;;;;;;;21.77;100.00;102097.66;5054325;28;19928;-81
2023/09/06 08:43:24;;;;;;;;;;;;;;;21.91;100.00;102095.75;5069449;28;19951;-83
2023/09/06 08:46:21;;;;;;;;;;;;;;;21.93;100.00;102097.38;5041639;28;19950;-81
2023/09/06 08:49:07;;;;;;;;;;;;;;;21.98;100.00;102102.41;5069286;28;20530;-84
2023/09/06 08:51:53;;;;;;;;;;;;;;;22.09;100.00;102097.09;5068087;28;19930;-81
2023/09/06 08:54:38;;;;;;;;;;;;;;;22.16;100.00;102097.47;5066050;28;19932;-82
2023/09/06 08:57:25;;;;;;;;;;;;;;;22.27;100.00;102093.13;5051864;28;19948;-82
2023/09/06 09:00:11;;;;;;;;;;;;;;;22.37;100.00;102096.81;5038795;28;20526;-81
2023/09/06 09:02:57;;;;;;;;;;;;;;;22.47;100.00;102102.38;5051574;28;19931;-81
2023/09/06 09:05:42;;;;;;;;;;;;;;;22.59;100.00;102104.16;5051663;28;19924;-82
2023/09/06 09:08:37;;;;;;;;;;;;;;;22.81;100.00;102107.88;5053147;28;19940;-81
2023/09/06 09:11:26;;;;;;;;;;;;;;;22.95;100.00;102103.25;5063176;28;19928;-81
2023/09/06 09:14:23;;;;;;;;;;;;;;;23.12;100.00;102099.19;5069261;28;19925;-88
2023/09/06 09:17:08;;;;;;;;;;;;;;;23.27;100.00;102097.97;5037583;28;19946;-89
2023/09/06 09:19:55;;;;;;;;;;;;;;;23.39;100.00;102096.19;5066132;28;19938;-92
2023/09/06 09:22:40;;;;;;;;;;;;;;;23.54;100.00;102082.41;5064011;28;19938;-89
2023/09/06 09:25:26;;;;;;;;;;;;;;;23.66;100.00;102094.03;5049353;28;20002;-87
2023/09/06 09:28:13;;;;;;;;;;;;;;;23.76;100.00;102084.19;5047856;28;20448;-89
2023/09/06 09:30:59;;;;;;;;;;;;;;;23.79;100.00;102088.50;5063263;28;19932;-90
2023/09/06 09:33:50;;;;;;;;;;;;;;;23.90;100.00;102080.34;5053212;28;20271;-91
2023/09/06 09:36:37;;;;;;;;;;;;;;;23.98;100.00;102080.53;5065621;28;19978;-92
2023/09/06 09:39:26;;;;;;;;;;;;;;;24.09;100.00;102081.53;5049879;28;21049;-91
2023/09/06 09:42:12;;;;;;;;;;;;;;;24.21;100.00;102080.50;5051256;28;19924;-90
2023/09/06 09:45:01;;;;;;;;;;;;;;;24.27;100.00;102079.97;5041063;28;19920;-91
2023/09/06 09:47:47;;;;;;;;;;;;;;;24.36;100.00;102083.72;5052988;28;19939;-90
2023/09/06 09:50:33;;;;;;;;;;;;;;;24.41;100.00;102083.34;5046826;28;19929;-93
2023/09/06 09:53:23;;;;;;;;;;;;;;;24.48;100.00;102081.84;5065184;28;19986;-87
2023/09/06 09:56:08;;;;;;;;;;;;;;;24.50;100.00;102087.09;5038853;28;19935;-86
2023/09/06 09:58:57;;;;;;;;;;;;;;;24.46;100.00;102081.09;5048469;28;19924;-90
2023/09/06 10:01:42;;;;;;;;;;;;;;;24.40;100.00;102084.34;5034299;28;19991;-87
2023/09/06 10:04:28;;;;;;;;;;;;;;;24.45;100.00;102083.97;5066509;28;20187;-88
2023/09/06 10:07:14;;;;;;;;;;;;;;;24.49;100.00;102088.97;5054113;28;19920;-90
2023/09/06 10:10:01;;;;;;;;;;;;;;;24.51;100.00;102089.69;5066980;28;19935;-96
2023/09/06 10:12:48;;;;;;;;;;;;;;;24.51;100.00;102091.56;5043087;28;20364;-90
2023/09/06 10:15:34;;;;;;;;;;;;;;;24.47;100.00;102088.25;5051996;28;19925;-91
2023/09/06 10:18:19;;;;;;;;;;;;;;;24.49;100.00;102085.38;5066025;28;20384;-89
2023/09/06 10:21:05;;;;;;;;;;;;;;;24.53;100.00;102084.16;5041799;28;20394;-95
2023/09/06 10:23:51;;;;;;;;;;;;;;;24.55;100.00;102082.16;5056510;28;19923;-94
2023/09/06 10:26:39;;;;;;;;;;;;;;;24.54;100.00;102077.75;5068175;28;19935;-92
2023/09/06 10:29:26;;;;;;;;;;;;;;;24.59;100.00;102074.63;5054431;28;19932;-91
2023/09/06 10:32:14;;;;;;;;;;;;;;;24.65;100.00;102080.38;5052851;28;19933;-86
2023/09/06 10:35:19;;;;;;;;;;;;;;;24.67;100.00;102077.53;5048028;28;20412;-91
2023/09/06 10:38:15;;;;;;;;;;;;;;;24.64;100.00;102081.38;5067616;28;20310;-95
2023/09/06 10:41:01;;;;;;;;;;;;;;;24.62;100.00;102072.50;5069353;28;19929;-95
2023/09/06 10:43:59;;;;;;;;;;;;;;;24.64;100.00;102083.22;5077239;28;20881;-91
2023/09/06 10:46:45;;;;;;;;;;;;;;;24.62;100.00;102079.78;5073260;28;19928;-96
2023/09/06 10:49:34;;;;;;;;;;;;;;;24.62;100.00;102082.50;5080227;28;19947;-96
2023/09/06 10:52:22;;;;;;;;;;;;;;;24.63;100.00;102076.94;5072062;28;19928;-91
2023/09/06 10:55:13;;;;;;;;;;;;;;;24.71;100.00;102078.97;5053948;28;19928;-90
2023/09/06 10:57:59;;;;;;;;;;;;;;;24.83;100.00;102089.78;5051239;28;19935;-89
2023/09/06 11:00:45;;;;;;;;;;;;;;;24.85;100.00;102079.66;5067458;28;21831;-91
2023/09/06 11:03:31;;;;;;;;;;;;;;;24.87;99.95;102083.94;5048871;28;20074;-89
2023/09/06 11:06:18;;;;;;;;;;;;;;;24.90;99.91;102078.25;5034416;28;19967;-87
2023/09/06 11:09:05;;;;;;;;;;;;;;;24.93;98.86;102079.84;5053070;28;19985;-91
2023/09/06 11:11:51;;;;;;;;;;;;;;;24.99;98.20;102079.31;5056858;28;20023;-92
2023/09/06 11:14:37;;;;;;;;;;;;;;;25.11;99.02;102081.94;5056417;28;20396;-93
2023/09/06 11:17:22;;;;;;;;;;;;;;;25.22;96.66;102079.13;5068816;28;19955;-93
2023/09/06 11:20:12;;;;;;;;;;;;;;;25.28;95.82;102070.44;5056029;28;20038;-93
2023/09/06 11:22:58;;;;;;;;;;;;;;;25.31;97.01;102078.28;5070285;28;19928;-91
2023/09/06 11:25:45;;;;;;;;;;;;;;;25.28;96.03;102070.44;5054086;28;19975;-92
2023/09/06 11:28:32;;;;;;;;;;;;;;;25.29;97.42;102074.88;5053842;28;19940;-92
2023/09/06 11:31:23;;;;;;;;;;;;;;;25.36;97.92;102081.47;5069832;28;19933;-92
2023/09/06 11:34:13;;;;;;;;;;;;;;;25.44;98.58;102071.78;5069029;28;20331;-91
2023/09/06 11:37:03;;;;;;;;;;;;;;;25.51;96.31;102064.81;5066417;28;19946;-90
2023/09/06 11:39:49;;;;;;;;;;;;;;;25.53;97.49;102070.97;5068580;28;20428;-89
2023/09/06 11:42:35;;;;;;;;;;;;;;;25.53;97.45;102070.97;5051785;28;20529;-90
2023/09/06 11:45:21;;;;;;;;;;;;;;;25.57;98.05;102069.69;5051432;28;19998;-90
2023/09/06 11:48:11;;;;;;;;;;;;;;;25.62;93.53;102063.84;5058997;28;19931;-92
2023/09/06 11:51:18;;;;;;;;;;;;;;;25.67;93.01;102071.56;5072478;28;20023;-90
2023/09/06 11:54:09;;;;;;;;;;;;;;;25.75;93.07;102063.56;5054866;28;19924;-90
2023/09/06 11:56:56;;;;;;;;;;;;;;;25.80;90.54;102064.00;5056514;28;20391;-89
2023/09/06 11:59:43;;;;;;;;;;;;;;;25.83;89.05;102068.31;5054668;28;19925;-90
2023/09/06 12:02:30;;;;;;;;;;;;;;;25.83;90.61;102069.16;5055254;28;19935;-93
2023/09/06 12:05:16;;;;;;;;;;;;;;;25.93;92.19;102065.59;5040410;28;19924;-90
2023/09/06 12:08:03;;;;;;;;;;;;;;;26.00;90.20;102069.47;5054582;28;20348;-88
2023/09/06 12:10:52;;;;;;;;;;;;;;;26.05;90.26;102053.63;5053267;28;20398;-89
2023/09/06 12:13:38;;;;;;;;;;;;;;;26.09;88.57;102055.03;5061360;28;19929;-93
2023/09/06 12:16:24;;;;;;;;;;;;;;;26.11;89.41;102058.47;5068360;28;20367;-91
2023/09/06 12:19:15;;;;;;;;;;;;;;;26.11;89.71;102053.03;5054610;28;20044;-89
2023/09/06 12:22:01;;;;;;;;;;;;;;;26.16;84.87;102056.16;5053441;28;19931;-89
2023/09/06 12:24:48;;;;;;;;;;;;;;;26.24;83.76;102052.75;5054539;28;20383;-91
2023/09/06 12:27:37;;;;;;;;;;;;;;;26.27;84.81;102046.19;5064864;28;20379;-89
2023/09/06 12:30:23;;;;;;;;;;;;;;;26.29;84.41;102050.47;5054795;28;21332;-88
2023/09/06 12:33:10;;;;;;;;;;;;;;;26.29;84.90;102055.03;5053699;28;19933;-89
2023/09/06 12:36:03;;;;;;;;;;;;;;;26.32;85.10;102045.75;5068592;28;20404;-88
2023/09/06 12:38:49;;;;;;;;;;;;;;;26.39;83.16;102053.19;5063368;28;19986;-88
2023/09/06 12:41:35;;;;;;;;;;;;;;;26.44;78.63;102056.31;5070945;28;19951;-89
2023/09/06 12:44:20;;;;;;;;;;;;;;;26.52;79.60;102043.88;5070228;28;19928;-89
2023/09/06 12:47:06;;;;;;;;;;;;;;;26.54;76.74;102044.56;5069367;28;20422;-88
2023/09/06 12:49:52;;;;;;;;;;;;;;;26.62;77.12;102044.69;5074518;28;19926;-91
2023/09/06 12:52:37;;;;;;;;;;;;;;;26.68;76.78;102040.50;5075896;28;20431;-92
2023/09/06 12:55:23;;;;;;;;;;;;;;;26.71;78.39;102042.97;5059888;28;19935;-94
2023/09/06 12:58:09;;;;;;;;;;;;;;;26.73;78.96;102035.50;5073120;28;19964;-92
2023/09/06 13:00:55;;;;;;;;;;;;;;;26.76;78.61;102037.06;5059492;28;20035;-91
2023/09/06 13:03:45;;;;;;;;;;;;;;;26.80;77.22;102038.50;5056241;28;19943;-89
2023/09/06 13:06:31;;;;;;;;;;;;;;;26.81;79.33;102038.31;5072371;28;20323;-90
2023/09/06 13:09:17;;;;;;;;;;;;;;;26.82;79.71;102037.34;5073049;28;19935;-90
2023/09/06 13:12:03;;;;;;;;;;;;;;;26.84;76.85;102037.19;5071537;28;20004;-92
2023/09/06 13:14:49;;;;;;;;;;;;;;;26.93;77.25;102035.47;5073567;28;19929;-90
2023/09/06 13:17:34;;;;;;;;;;;;;;;26.97;77.18;102032.28;5072887;28;19929;-90
2023/09/06 13:20:20;;;;;;;;;;;;;;;26.99;76.01;102037.59;5073431;28;19928;-92
2023/09/06 13:23:06;;;;;;;;;;;;;;;27.06;73.81;102035.13;5060672;28;21972;-92
2023/09/06 13:25:52;;;;;;;;;;;;;;;27.16;75.30;102029.63;5060532;28;19943;-90
2023/09/06 13:28:39;;;;;;;;;;;;;;;27.18;75.68;102023.03;5072658;28;20508;-89
2023/09/06 13:31:24;;;;;;;;;;;;;;;27.24;73.80;102032.47;5072165;28;19936;-92
2023/09/06 13:34:10;;;;;;;;;;;;;;;27.19;73.57;102018.47;5074274;28;19978;-92
2023/09/06 13:36:56;;;;;;;;;;;;;;;27.21;70.05;102024.59;5072938;28;19929;-91
2023/09/06 13:39:42;;;;;;;;;;;;;;;27.22;71.03;102023.59;5057178;28;19929;-90
2023/09/06 13:42:28;;;;;;;;;;;;;;;27.27;68.22;102017.72;5072168;28;20026;-91
2023/09/06 13:45:14;;;;;;;;;;;;;;;27.31;69.46;102022.69;5044762;28;19925;-92
2023/09/06 13:48:00;;;;;;;;;;;;;;;27.33;68.55;102030.66;5070492;28;19958;-89
2023/09/06 13:50:45;;;;;;;;;;;;;;;27.32;66.51;102032.56;5056568;28;19978;-90
2023/09/06 13:53:31;;;;;;;;;;;;;;;27.35;66.79;102023.25;5054529;28;19932;-92
2023/09/06 13:56:17;;;;;;;;;;;;;;;27.37;67.99;102018.50;5068266;28;19997;-90
2023/09/06 13:59:03;;;;;;;;;;;;;;;27.40;67.02;102020.94;5053479;28;19927;-87
2023/09/06 14:01:49;;;;;;;;;;;;;;;27.38;67.43;102028.34;5069268;28;19925;-88
2023/09/06 14:04:35;;;;;;;;;;;;;;;27.37;68.02;102022.09;5069685;28;19924;-90
2023/09/06 14:07:20;;;;;;;;;;;;;;;27.40;68.14;102020.94;5053113;28;20025;-89
2023/09/06 14:10:06;;;;;;;;;;;;;;;27.42;66.11;102027.06;5053836;28;20058;-88